createdAt,value
2017-07-23T00:00:19.358Z,0
2017-07-23T00:01:18.546Z,0
2017-07-23T00:02:19.164Z,0
2017-07-23T00:03:18.888Z,0
2017-07-23T00:04:18.918Z,0
2017-07-23T00:05:19.246Z,0
2017-07-23T00:06:19.297Z,0
2017-07-23T00:07:19.316Z,0
2017-07-23T00:08:19.037Z,0
2017-07-23T00:09:18.441Z,0
2017-07-23T00:10:19.406Z,0
2017-07-23T00:11:19.434Z,0
2017-07-23T00:12:19.156Z,0
2017-07-23T00:13:19.492Z,0
2017-07-23T00:14:19.205Z,0
2017-07-23T00:15:19.807Z,0
2017-07-23T00:16:19.272Z,0
2017-07-23T00:17:19.303Z,0
2017-07-23T00:18:19.640Z,0
2017-07-23T00:19:19.058Z,0
2017-07-23T00:20:19.951Z,0
2017-07-23T00:21:19.752Z,0
2017-07-23T00:22:19.463Z,0
2017-07-23T00:23:19.165Z,0
2017-07-23T00:24:19.815Z,0
2017-07-23T00:25:20.108Z,0
2017-07-23T00:26:19.257Z,0
2017-07-23T00:27:19.596Z,0
2017-07-23T00:28:19.634Z,0
2017-07-23T00:29:19.986Z,0
2017-07-23T00:30:19.948Z,0
2017-07-23T00:31:20.028Z,0
2017-07-23T00:32:20.079Z,0
2017-07-23T00:33:19.770Z,0
2017-07-23T00:34:20.121Z,0
2017-07-23T00:35:20.099Z,0
2017-07-23T00:36:19.872Z,0
2017-07-23T00:37:19.900Z,0
2017-07-23T00:38:19.614Z,0
2017-07-23T00:39:19.963Z,0
2017-07-23T00:40:19.922Z,0
2017-07-23T00:41:20.324Z,0
2017-07-23T00:42:20.050Z,0
2017-07-23T00:43:20.088Z,0
2017-07-23T00:44:20.407Z,0
2017-07-23T00:45:20.439Z,0
2017-07-23T00:46:20.483Z,0
2017-07-23T00:47:20.189Z,0
2017-07-23T00:48:19.914Z,0
2017-07-23T00:49:20.295Z,0
2017-07-23T00:50:20.224Z,0
2017-07-23T00:51:20.308Z,0
2017-07-23T00:52:20.345Z,0
2017-07-23T00:53:20.378Z,0
2017-07-23T00:54:20.407Z,0
2017-07-23T00:55:20.683Z,0
2017-07-23T00:56:20.773Z,0
2017-07-23T00:57:20.814Z,0
2017-07-23T00:58:20.517Z,0
2017-07-23T00:59:20.547Z,0
2017-07-23T01:00:20.883Z,0
2017-07-23T01:01:20.607Z,0
2017-07-23T01:02:20.330Z,0
2017-07-23T01:03:20.354Z,0
2017-07-23T01:04:20.703Z,0
2017-07-23T01:05:21.292Z,0
2017-07-23T01:06:20.757Z,0
2017-07-23T01:07:20.794Z,0
2017-07-23T01:08:20.502Z,0
2017-07-23T01:09:21.160Z,0
2017-07-23T01:10:21.496Z,0
2017-07-23T01:11:20.598Z,0
2017-07-23T01:12:21.246Z,0
2017-07-23T01:13:21.283Z,0
2017-07-23T01:14:21.323Z,0
2017-07-23T01:15:21.631Z,0
2017-07-23T01:16:21.360Z,0
2017-07-23T01:17:20.468Z,0
2017-07-23T01:18:21.431Z,0
2017-07-23T01:19:21.154Z,0
2017-07-23T01:20:21.784Z,0
2017-07-23T01:21:20.574Z,0
2017-07-23T01:22:20.922Z,0
2017-07-23T01:23:21.263Z,0
2017-07-23T01:24:21.615Z,0
2017-07-23T01:25:21.575Z,0
2017-07-23T01:26:21.361Z,0
2017-07-23T01:27:21.375Z,0
2017-07-23T01:28:21.739Z,0
2017-07-23T01:29:21.743Z,0
2017-07-23T01:30:21.156Z,0
2017-07-23T01:31:21.498Z,0
2017-07-23T01:32:21.226Z,0
2017-07-23T01:33:21.883Z,0
2017-07-23T01:34:21.596Z,0
2017-07-23T01:35:21.308Z,0
2017-07-23T01:36:21.338Z,0
2017-07-23T01:37:21.673Z,0
2017-07-23T01:38:21.392Z,0
2017-07-23T01:39:21.736Z,0
2017-07-23T01:40:21.149Z,0
2017-07-23T01:41:21.478Z,0
2017-07-23T01:42:22.143Z,0
2017-07-23T01:43:22.175Z,0
2017-07-23T01:44:21.887Z,0
2017-07-23T01:45:21.907Z,0
2017-07-23T01:46:21.953Z,0
2017-07-23T01:47:21.655Z,0
2017-07-23T01:48:22.013Z,0
2017-07-23T01:49:22.337Z,0
2017-07-23T01:50:22.373Z,0
2017-07-23T01:51:22.406Z,0
2017-07-23T01:52:22.130Z,0
2017-07-23T01:53:22.470Z,0
2017-07-23T01:54:22.501Z,0
2017-07-23T01:55:22.209Z,0
2017-07-23T01:56:22.558Z,0
2017-07-23T01:57:22.267Z,0
2017-07-23T01:58:21.976Z,0
2017-07-23T01:59:22.326Z,0
2017-07-23T02:00:22.674Z,0
2017-07-23T02:01:22.391Z,0
2017-07-23T02:02:22.421Z,0
2017-07-23T02:03:22.761Z,0
2017-07-23T02:04:22.480Z,0
2017-07-23T02:05:22.502Z,0
2017-07-23T02:06:22.850Z,0
2017-07-23T02:07:22.248Z,0
2017-07-23T02:08:22.927Z,0
2017-07-23T02:09:22.623Z,0
2017-07-23T02:10:22.337Z,0
2017-07-23T02:11:22.930Z,0
2017-07-23T02:12:22.723Z,0
2017-07-23T02:13:22.436Z,0
2017-07-23T02:14:22.767Z,0
2017-07-23T02:15:23.112Z,0
2017-07-23T02:16:23.074Z,0
2017-07-23T02:17:22.855Z,0
2017-07-23T02:18:23.208Z,0
2017-07-23T02:19:22.921Z,0
2017-07-23T02:20:23.264Z,0
2017-07-23T02:21:23.583Z,0
2017-07-23T02:22:22.687Z,0
2017-07-23T02:23:22.728Z,0
2017-07-23T02:24:23.057Z,0
2017-07-23T02:25:22.778Z,0
2017-07-23T02:26:23.683Z,0
2017-07-23T02:27:23.156Z,0
2017-07-23T02:28:22.872Z,0
2017-07-23T02:29:23.527Z,0
2017-07-23T02:30:23.553Z,0
2017-07-23T02:31:23.839Z,0
2017-07-23T02:32:23.616Z,0
2017-07-23T02:33:22.716Z,0
2017-07-23T02:34:23.670Z,0
2017-07-23T02:35:23.385Z,0
2017-07-23T02:36:24.022Z,0
2017-07-23T02:37:23.141Z,0
2017-07-23T02:38:23.169Z,0
2017-07-23T02:39:23.822Z,0
2017-07-23T02:40:23.840Z,0
2017-07-23T02:41:24.171Z,0
2017-07-23T02:42:23.600Z,0
2017-07-23T02:43:23.933Z,0
2017-07-23T02:44:23.961Z,0
2017-07-23T02:45:24.000Z,0
2017-07-23T02:46:23.704Z,0
2017-07-23T02:47:24.056Z,0
2017-07-23T02:48:23.769Z,0
2017-07-23T02:49:23.794Z,0
2017-07-23T02:50:23.827Z,0
2017-07-23T02:51:24.428Z,0
2017-07-23T02:52:23.892Z,0
2017-07-23T02:53:23.293Z,0
2017-07-23T02:54:24.261Z,0
2017-07-23T02:55:24.291Z,0
2017-07-23T02:56:23.993Z,0
2017-07-23T02:57:24.340Z,0
2017-07-23T02:58:24.077Z,0
2017-07-23T02:59:24.098Z,0
2017-07-23T03:00:23.811Z,0
2017-07-23T03:01:24.448Z,0
2017-07-23T03:02:24.183Z,0
2017-07-23T03:03:24.208Z,0
2017-07-23T03:04:24.246Z,0
2017-07-23T03:05:24.267Z,0
2017-07-23T03:06:24.232Z,0
2017-07-23T03:07:24.645Z,0
2017-07-23T03:08:24.361Z,0
2017-07-23T03:09:24.719Z,0
2017-07-23T03:10:24.419Z,0
2017-07-23T03:11:24.708Z,0
2017-07-23T03:12:24.791Z,0
2017-07-23T03:13:24.197Z,0
2017-07-23T03:14:24.530Z,0
2017-07-23T03:15:24.563Z,0
2017-07-23T03:16:25.209Z,0
2017-07-23T03:17:24.621Z,0
2017-07-23T03:18:24.648Z,0
2017-07-23T03:19:24.691Z,0
2017-07-23T03:20:25.024Z,0
2017-07-23T03:21:25.352Z,0
2017-07-23T03:22:24.764Z,0
2017-07-23T03:23:24.802Z,0
2017-07-23T03:24:24.822Z,0
2017-07-23T03:25:24.549Z,0
2017-07-23T03:26:25.457Z,0
2017-07-23T03:27:24.613Z,0
2017-07-23T03:28:25.271Z,0
2017-07-23T03:29:24.667Z,0
2017-07-23T03:30:25.320Z,4
2017-07-23T03:31:25.613Z,4
2017-07-23T03:32:25.066Z,4
2017-07-23T03:33:25.086Z,4
2017-07-23T03:34:25.433Z,4
2017-07-23T03:35:25.141Z,4
2017-07-23T03:36:25.131Z,4
2017-07-23T03:37:25.210Z,4
2017-07-23T03:38:25.242Z,8
2017-07-23T03:39:25.582Z,4
2017-07-23T03:40:25.611Z,8
2017-07-23T03:41:25.316Z,12
2017-07-23T03:42:25.361Z,8
2017-07-23T03:43:25.074Z,12
2017-07-23T03:44:25.113Z,8
2017-07-23T03:45:25.443Z,12
2017-07-23T03:46:26.105Z,12
2017-07-23T03:47:25.501Z,16
2017-07-23T03:48:25.842Z,12
2017-07-23T03:49:25.879Z,16
2017-07-23T03:50:25.911Z,16
2017-07-23T03:51:25.876Z,20
2017-07-23T03:52:25.654Z,20
2017-07-23T03:53:25.995Z,24
2017-07-23T03:54:26.026Z,28
2017-07-23T03:55:26.056Z,28
2017-07-23T03:56:26.025Z,36
2017-07-23T03:57:26.121Z,40
2017-07-23T03:58:26.131Z,36
2017-07-23T03:59:26.179Z,44
2017-07-23T04:00:25.889Z,52
2017-07-23T04:01:26.216Z,48
2017-07-23T04:02:25.322Z,64
2017-07-23T04:03:26.283Z,72
2017-07-23T04:04:26.007Z,84
2017-07-23T04:05:26.348Z,96
2017-07-23T04:06:26.065Z,100
2017-07-23T04:07:26.406Z,108
2017-07-23T04:08:26.130Z,116
2017-07-23T04:09:25.848Z,120
2017-07-23T04:10:26.180Z,124
2017-07-23T04:11:26.521Z,128
2017-07-23T04:12:26.254Z,136
2017-07-23T04:13:25.963Z,144
2017-07-23T04:14:26.612Z,152
2017-07-23T04:15:26.324Z,160
2017-07-23T04:16:26.668Z,172
2017-07-23T04:17:26.694Z,176
2017-07-23T04:18:26.719Z,188
2017-07-23T04:19:26.780Z,200
2017-07-23T04:20:26.784Z,208
2017-07-23T04:21:26.509Z,212
2017-07-23T04:22:26.777Z,220
2017-07-23T04:23:26.881Z,220
2017-07-23T04:24:26.592Z,220
2017-07-23T04:25:26.929Z,228
2017-07-23T04:26:26.646Z,248
2017-07-23T04:27:26.975Z,256
2017-07-23T04:28:26.395Z,256
2017-07-23T04:29:27.052Z,260
2017-07-23T04:30:27.081Z,268
2017-07-23T04:31:27.109Z,276
2017-07-23T04:32:27.079Z,280
2017-07-23T04:33:26.856Z,280
2017-07-23T04:34:26.885Z,288
2017-07-23T04:35:26.910Z,304
2017-07-23T04:36:27.255Z,328
2017-07-23T04:37:27.284Z,356
2017-07-23T04:38:27.056Z,400
2017-07-23T04:39:27.028Z,428
2017-07-23T04:40:27.062Z,436
2017-07-23T04:41:26.783Z,456
2017-07-23T04:42:27.672Z,512
2017-07-23T04:43:27.149Z,476
2017-07-23T04:44:27.181Z,460
2017-07-23T04:45:27.526Z,444
2017-07-23T04:46:27.559Z,444
2017-07-23T04:47:27.518Z,468
2017-07-23T04:48:27.608Z,468
2017-07-23T04:49:27.013Z,468
2017-07-23T04:50:27.361Z,484
2017-07-23T04:51:27.394Z,508
2017-07-23T04:52:27.659Z,516
2017-07-23T04:53:27.757Z,540
2017-07-23T04:54:27.482Z,560
2017-07-23T04:55:27.501Z,552
2017-07-23T04:56:27.843Z,556
2017-07-23T04:57:27.500Z,608
2017-07-23T04:58:27.896Z,652
2017-07-23T04:59:27.616Z,708
2017-07-23T05:00:27.334Z,792
2017-07-23T05:01:28.002Z,900
2017-07-23T05:02:28.268Z,968
2017-07-23T05:03:27.728Z,872
2017-07-23T05:04:28.087Z,780
2017-07-23T05:05:28.106Z,892
2017-07-23T05:06:27.816Z,816
2017-07-23T05:07:28.153Z,900
2017-07-23T05:08:27.881Z,964
2017-07-23T05:09:28.218Z,932
2017-07-23T05:10:27.950Z,976
2017-07-23T05:11:27.966Z,968
2017-07-23T05:12:28.299Z,880
2017-07-23T05:13:28.036Z,856
2017-07-23T05:14:27.748Z,872
2017-07-23T05:15:28.086Z,956
2017-07-23T05:16:28.115Z,1068
2017-07-23T05:17:28.719Z,984
2017-07-23T05:18:27.868Z,912
2017-07-23T05:19:28.206Z,928
2017-07-23T05:20:28.229Z,952
2017-07-23T05:21:28.602Z,884
2017-07-23T05:22:28.856Z,820
2017-07-23T05:23:28.634Z,752
2017-07-23T05:24:28.353Z,692
2017-07-23T05:25:28.379Z,704
2017-07-23T05:26:28.406Z,760
2017-07-23T05:27:29.003Z,824
2017-07-23T05:28:28.468Z,892
2017-07-23T05:29:28.830Z,944
2017-07-23T05:30:28.851Z,1012
2017-07-23T05:31:28.555Z,1112
2017-07-23T05:32:29.147Z,1172
2017-07-23T05:33:28.612Z,1288
2017-07-23T05:34:28.946Z,1512
2017-07-23T05:35:28.683Z,1484
2017-07-23T05:36:29.007Z,1540
2017-07-23T05:37:29.302Z,1536
2017-07-23T05:38:28.761Z,1360
2017-07-23T05:39:28.785Z,1324
2017-07-23T05:40:29.127Z,1212
2017-07-23T05:41:29.164Z,1244
2017-07-23T05:42:29.182Z,1192
2017-07-23T05:43:28.594Z,1236
2017-07-23T05:44:28.933Z,1264
2017-07-23T05:45:28.963Z,1260
2017-07-23T05:46:28.996Z,1192
2017-07-23T05:47:29.322Z,1224
2017-07-23T05:48:29.361Z,1356
2017-07-23T05:49:28.454Z,1488
2017-07-23T05:50:29.111Z,1528
2017-07-23T05:51:29.138Z,1516
2017-07-23T05:52:29.421Z,1480
2017-07-23T05:53:28.889Z,1396
2017-07-23T05:54:29.222Z,1332
2017-07-23T05:55:29.576Z,1232
2017-07-23T05:56:29.597Z,1176
2017-07-23T05:57:29.569Z,1148
2017-07-23T05:58:29.670Z,1192
2017-07-23T05:59:29.679Z,1224
2017-07-23T06:00:29.711Z,1160
2017-07-23T06:01:29.751Z,1128
2017-07-23T06:02:29.773Z,1076
2017-07-23T06:03:29.801Z,1180
2017-07-23T06:04:29.207Z,1192
2017-07-23T06:05:29.550Z,1316
2017-07-23T06:06:29.896Z,1180
2017-07-23T06:07:29.538Z,1140
2017-07-23T06:08:29.640Z,1260
2017-07-23T06:09:29.980Z,1292
2017-07-23T06:10:29.388Z,1480
2017-07-23T06:11:30.040Z,1592
2017-07-23T06:12:29.698Z,1620
2017-07-23T06:13:29.775Z,1748
2017-07-23T06:14:30.126Z,1916
2017-07-23T06:15:30.156Z,1944
2017-07-23T06:16:30.185Z,2020
2017-07-23T06:17:30.461Z,1932
2017-07-23T06:18:29.631Z,1852
2017-07-23T06:19:30.277Z,1808
2017-07-23T06:20:30.304Z,1788
2017-07-23T06:21:29.714Z,1780
2017-07-23T06:22:30.049Z,1836
2017-07-23T06:23:30.086Z,1876
2017-07-23T06:24:30.424Z,1780
2017-07-23T06:25:30.456Z,1684
2017-07-23T06:26:30.481Z,1648
2017-07-23T06:27:30.514Z,1652
2017-07-23T06:28:30.231Z,1736
2017-07-23T06:29:30.252Z,1828
2017-07-23T06:30:30.596Z,1940
2017-07-23T06:31:30.309Z,2028
2017-07-23T06:32:30.654Z,2112
2017-07-23T06:33:30.944Z,2160
2017-07-23T06:34:30.091Z,2144
2017-07-23T06:35:30.751Z,2184
2017-07-23T06:36:30.780Z,2260
2017-07-23T06:37:30.803Z,2276
2017-07-23T06:38:30.779Z,2304
2017-07-23T06:39:30.864Z,2336
2017-07-23T06:40:30.573Z,2320
2017-07-23T06:41:30.922Z,2364
2017-07-23T06:42:30.331Z,2444
2017-07-23T06:43:31.284Z,2496
2017-07-23T06:44:31.017Z,2500
2017-07-23T06:45:31.043Z,2476
2017-07-23T06:46:30.446Z,2516
2017-07-23T06:47:30.787Z,2592
2017-07-23T06:48:31.424Z,2672
2017-07-23T06:49:30.846Z,2624
2017-07-23T06:50:30.877Z,2552
2017-07-23T06:51:30.913Z,2520
2017-07-23T06:52:30.934Z,2504
2017-07-23T06:53:31.211Z,2496
2017-07-23T06:54:31.297Z,2548
2017-07-23T06:55:31.332Z,2636
2017-07-23T06:56:31.365Z,2756
2017-07-23T06:57:31.386Z,2828
2017-07-23T06:58:31.684Z,2872
2017-07-23T06:59:31.444Z,2860
2017-07-23T07:00:31.169Z,2796
2017-07-23T07:01:31.501Z,2728
2017-07-23T07:02:31.543Z,2720
2017-07-23T07:03:31.883Z,2680
2017-07-23T07:04:31.599Z,2116
2017-07-23T07:05:31.313Z,2548
2017-07-23T07:06:31.345Z,2912
2017-07-23T07:07:31.687Z,2840
2017-07-23T07:08:31.972Z,2756
2017-07-23T07:09:31.744Z,2956
2017-07-23T07:10:31.769Z,2888
2017-07-23T07:11:31.806Z,2880
2017-07-23T07:12:31.831Z,2928
2017-07-23T07:13:31.816Z,2832
2017-07-23T07:14:31.609Z,2764
2017-07-23T07:15:31.920Z,2884
2017-07-23T07:16:31.959Z,3012
2017-07-23T07:17:31.668Z,3040
2017-07-23T07:18:31.965Z,3044
2017-07-23T07:19:31.752Z,3036
2017-07-23T07:20:31.444Z,3040
2017-07-23T07:21:31.474Z,2976
2017-07-23T07:22:31.503Z,2916
2017-07-23T07:23:32.460Z,2772
2017-07-23T07:24:31.891Z,2824
2017-07-23T07:25:32.210Z,2892
2017-07-23T07:26:31.934Z,2876
2017-07-23T07:27:31.976Z,2736
2017-07-23T07:28:32.241Z,2496
2017-07-23T07:29:31.732Z,2196
2017-07-23T07:30:32.368Z,2712
2017-07-23T07:31:32.391Z,2936
2017-07-23T07:32:32.463Z,2652
2017-07-23T07:33:32.393Z,2972
2017-07-23T07:34:32.509Z,3056
2017-07-23T07:35:31.882Z,3036
2017-07-23T07:36:32.550Z,2892
2017-07-23T07:37:32.255Z,2740
2017-07-23T07:38:32.892Z,2976
2017-07-23T07:39:32.630Z,2952
2017-07-23T07:40:32.654Z,2592
2017-07-23T07:41:32.384Z,3164
2017-07-23T07:42:32.712Z,3332
2017-07-23T07:43:32.137Z,3192
2017-07-23T07:44:32.771Z,3448
2017-07-23T07:45:32.795Z,3452
2017-07-23T07:46:32.836Z,3536
2017-07-23T07:47:32.864Z,3468
2017-07-23T07:48:32.582Z,3560
2017-07-23T07:49:32.609Z,3512
2017-07-23T07:50:32.963Z,3332
2017-07-23T07:51:32.979Z,3156
2017-07-23T07:52:32.076Z,3056
2017-07-23T07:53:32.735Z,3392
2017-07-23T07:54:32.750Z,3544
2017-07-23T07:55:32.786Z,3448
2017-07-23T07:56:32.831Z,3396
2017-07-23T07:57:33.160Z,3468
2017-07-23T07:58:32.869Z,3376
2017-07-23T07:59:32.897Z,3220
2017-07-23T08:00:33.251Z,3136
2017-07-23T08:01:33.288Z,3292
2017-07-23T08:02:32.988Z,3612
2017-07-23T08:03:32.696Z,3908
2017-07-23T08:04:33.317Z,4116
2017-07-23T08:05:33.079Z,4256
2017-07-23T08:06:33.427Z,4444
2017-07-23T08:07:33.173Z,4676
2017-07-23T08:08:33.470Z,4688
2017-07-23T08:09:33.446Z,4224
2017-07-23T08:10:32.915Z,4492
2017-07-23T08:11:32.954Z,4096
2017-07-23T08:12:33.288Z,4000
2017-07-23T08:13:33.625Z,4112
2017-07-23T08:14:33.329Z,3732
2017-07-23T08:15:33.695Z,3288
2017-07-23T08:16:33.412Z,3576
2017-07-23T08:17:33.735Z,3236
2017-07-23T08:18:32.841Z,3712
2017-07-23T08:19:33.794Z,3864
2017-07-23T08:20:33.839Z,3328
2017-07-23T08:21:32.944Z,2356
2017-07-23T08:22:33.589Z,2152
2017-07-23T08:23:33.001Z,2752
2017-07-23T08:24:33.890Z,3228
2017-07-23T08:25:33.987Z,3452
2017-07-23T08:26:34.012Z,3704
2017-07-23T08:27:34.042Z,3916
2017-07-23T08:28:33.445Z,4116
2017-07-23T08:29:34.040Z,3740
2017-07-23T08:30:33.516Z,3048
2017-07-23T08:31:33.854Z,3268
2017-07-23T08:32:33.883Z,2276
2017-07-23T08:33:34.227Z,1276
2017-07-23T08:34:34.194Z,1044
2017-07-23T08:35:33.657Z,1216
2017-07-23T08:36:34.316Z,1796
2017-07-23T08:37:33.721Z,3972
2017-07-23T08:38:33.746Z,4484
2017-07-23T08:39:34.337Z,4492
2017-07-23T08:40:34.107Z,4636
2017-07-23T08:41:34.144Z,4616
2017-07-23T08:42:34.191Z,3988
2017-07-23T08:43:34.199Z,3204
2017-07-23T08:44:34.222Z,2052
2017-07-23T08:45:34.288Z,1584
2017-07-23T08:46:34.012Z,1500
2017-07-23T08:47:34.345Z,2368
2017-07-23T08:48:34.041Z,3884
2017-07-23T08:49:34.638Z,3564
2017-07-23T08:50:34.108Z,2588
2017-07-23T08:51:34.753Z,1916
2017-07-23T08:52:34.786Z,1732
2017-07-23T08:53:34.520Z,1624
2017-07-23T08:54:33.906Z,1356
2017-07-23T08:55:34.252Z,1112
2017-07-23T08:56:34.589Z,920
2017-07-23T08:57:34.933Z,860
2017-07-23T08:58:34.651Z,848
2017-07-23T08:59:34.368Z,892
2017-07-23T09:00:34.708Z,1052
2017-07-23T09:01:34.437Z,1360
2017-07-23T09:02:34.450Z,1980
2017-07-23T09:03:35.114Z,2464
2017-07-23T09:04:35.144Z,2452
2017-07-23T09:05:35.171Z,2004
2017-07-23T09:06:35.201Z,1972
2017-07-23T09:07:35.225Z,2432
2017-07-23T09:08:35.253Z,3468
2017-07-23T09:09:35.293Z,4104
2017-07-23T09:10:35.004Z,4108
2017-07-23T09:11:35.033Z,4480
2017-07-23T09:12:35.362Z,4656
2017-07-23T09:13:34.791Z,4012
2017-07-23T09:14:35.119Z,3604
2017-07-23T09:15:35.160Z,3216
2017-07-23T09:16:35.185Z,2680
2017-07-23T09:17:34.898Z,2484
2017-07-23T09:18:35.559Z,2312
2017-07-23T09:19:35.278Z,2684
2017-07-23T09:20:35.607Z,3192
2017-07-23T09:21:35.641Z,3008
2017-07-23T09:22:35.670Z,3048
2017-07-23T09:23:35.075Z,2856
2017-07-23T09:24:34.804Z,2608
2017-07-23T09:25:35.695Z,2648
2017-07-23T09:26:35.473Z,3360
2017-07-23T09:27:35.502Z,4608
2017-07-23T09:28:35.527Z,4852
2017-07-23T09:29:35.563Z,4828
2017-07-23T09:30:35.849Z,4748
2017-07-23T09:31:35.617Z,4396
2017-07-23T09:32:35.338Z,3704
2017-07-23T09:33:35.685Z,2844
2017-07-23T09:34:36.039Z,2516
2017-07-23T09:35:36.304Z,1988
2017-07-23T09:36:36.088Z,1352
2017-07-23T09:37:35.790Z,1412
2017-07-23T09:38:36.138Z,1508
2017-07-23T09:39:36.175Z,1440
2017-07-23T09:40:35.827Z,1624
2017-07-23T09:41:35.945Z,1884
2017-07-23T09:42:35.947Z,1460
2017-07-23T09:43:35.978Z,1240
2017-07-23T09:44:36.008Z,1300
2017-07-23T09:45:36.019Z,1740
2017-07-23T09:46:36.057Z,2436
2017-07-23T09:47:36.421Z,3056
2017-07-23T09:48:36.123Z,3564
2017-07-23T09:49:36.156Z,2828
2017-07-23T09:50:36.486Z,3296
2017-07-23T09:51:36.214Z,4344
2017-07-23T09:52:36.556Z,4732
2017-07-23T09:53:35.958Z,4844
2017-07-23T09:54:35.999Z,3744
2017-07-23T09:55:36.911Z,2692
2017-07-23T09:56:36.387Z,2488
2017-07-23T09:57:36.087Z,2128
2017-07-23T09:58:36.726Z,1816
2017-07-23T09:59:36.132Z,1932
2017-07-23T10:00:36.768Z,2644
2017-07-23T10:01:36.854Z,3612
2017-07-23T10:02:36.541Z,4216
2017-07-23T10:03:36.878Z,4396
2017-07-23T10:04:36.609Z,5804
2017-07-23T10:05:37.177Z,5680
2017-07-23T10:06:36.657Z,6272
2017-07-23T10:07:37.007Z,5780
2017-07-23T10:08:36.728Z,4848
2017-07-23T10:09:36.750Z,5128
2017-07-23T10:10:37.392Z,4968
2017-07-23T10:11:36.500Z,4388
2017-07-23T10:12:36.849Z,4848
2017-07-23T10:13:36.555Z,5740
2017-07-23T10:14:37.208Z,5536
2017-07-23T10:15:37.217Z,5156
2017-07-23T10:16:37.274Z,5036
2017-07-23T10:17:37.295Z,4676
2017-07-23T10:18:37.020Z,4444
2017-07-23T10:19:37.036Z,4052
2017-07-23T10:20:37.658Z,3392
2017-07-23T10:21:37.102Z,3796
2017-07-23T10:22:37.439Z,4352
2017-07-23T10:23:37.170Z,4684
2017-07-23T10:24:37.185Z,4344
2017-07-23T10:25:37.789Z,3908
2017-07-23T10:26:37.243Z,3364
2017-07-23T10:27:37.591Z,3456
2017-07-23T10:28:37.303Z,3784
2017-07-23T10:29:37.340Z,4484
2017-07-23T10:30:37.665Z,4948
2017-07-23T10:31:37.086Z,5760
2017-07-23T10:32:37.418Z,5716
2017-07-23T10:33:37.450Z,5088
2017-07-23T10:34:37.800Z,4016
2017-07-23T10:35:37.805Z,3552
2017-07-23T10:36:37.546Z,2852
2017-07-23T10:37:37.259Z,2208
2017-07-23T10:38:37.604Z,1956
2017-07-23T10:39:37.325Z,2640
2017-07-23T10:40:37.294Z,1964
2017-07-23T10:41:38.008Z,2220
2017-07-23T10:42:38.012Z,2480
2017-07-23T10:43:37.760Z,2604
2017-07-23T10:44:37.775Z,4072
2017-07-23T10:45:38.359Z,6068
2017-07-23T10:46:37.523Z,6320
2017-07-23T10:47:38.179Z,5668
2017-07-23T10:48:37.593Z,4396
2017-07-23T10:49:38.242Z,3992
2017-07-23T10:50:38.531Z,3184
2017-07-23T10:51:37.992Z,2244
2017-07-23T10:52:38.015Z,2380
2017-07-23T10:53:38.049Z,3184
2017-07-23T10:54:38.389Z,3076
2017-07-23T10:55:38.410Z,2688
2017-07-23T10:56:38.119Z,3092
2017-07-23T10:57:38.160Z,4544
2017-07-23T10:58:38.507Z,5696
2017-07-23T10:59:38.534Z,6268
2017-07-23T11:00:38.818Z,5864
2017-07-23T11:01:38.291Z,3956
2017-07-23T11:02:38.339Z,4248
2017-07-23T11:03:38.032Z,4644
2017-07-23T11:04:38.366Z,6568
2017-07-23T11:05:38.648Z,6700
2017-07-23T11:06:38.270Z,7032
2017-07-23T11:07:38.840Z,7820
2017-07-23T11:08:38.829Z,7460
2017-07-23T11:09:38.216Z,6408
2017-07-23T11:10:39.133Z,6192
2017-07-23T11:11:38.268Z,6868
2017-07-23T11:12:38.340Z,7160
2017-07-23T11:13:38.684Z,7012
2017-07-23T11:14:38.367Z,6860
2017-07-23T11:15:39.271Z,7032
2017-07-23T11:16:39.043Z,5848
2017-07-23T11:17:38.474Z,4092
2017-07-23T11:18:38.789Z,3052
2017-07-23T11:19:39.130Z,2736
2017-07-23T11:20:38.539Z,2372
2017-07-23T11:21:38.909Z,2628
2017-07-23T11:22:39.238Z,3496
2017-07-23T11:23:39.255Z,4548
2017-07-23T11:24:39.290Z,5440
2017-07-23T11:25:39.353Z,6880
2017-07-23T11:26:39.029Z,7628
2017-07-23T11:27:39.054Z,7300
2017-07-23T11:28:39.090Z,6288
2017-07-23T11:29:39.439Z,4588
2017-07-23T11:30:38.864Z,3888
2017-07-23T11:31:39.418Z,4524
2017-07-23T11:32:39.524Z,5564
2017-07-23T11:33:39.555Z,6344
2017-07-23T11:34:38.963Z,6788
2017-07-23T11:35:39.296Z,8960
2017-07-23T11:36:39.625Z,8212
2017-07-23T11:37:39.718Z,4596
2017-07-23T11:38:39.389Z,3900
2017-07-23T11:39:39.428Z,3588
2017-07-23T11:40:39.797Z,3468
2017-07-23T11:41:40.045Z,3268
2017-07-23T11:42:39.512Z,2656
2017-07-23T11:43:39.231Z,2072
2017-07-23T11:44:39.891Z,2048
2017-07-23T11:45:39.365Z,1860
2017-07-23T11:46:39.880Z,1728
2017-07-23T11:47:39.657Z,1660
2017-07-23T11:48:39.380Z,1548
2017-07-23T11:49:40.031Z,1460
2017-07-23T11:50:40.119Z,2116
2017-07-23T11:51:40.034Z,3672
2017-07-23T11:52:40.117Z,7584
2017-07-23T11:53:40.147Z,12576
2017-07-23T11:54:40.171Z,9636
2017-07-23T11:55:40.203Z,11428
2017-07-23T11:56:40.180Z,12940
2017-07-23T11:57:39.954Z,48448
2017-07-23T11:58:40.313Z,26048
2017-07-23T11:59:40.340Z,10260
2017-07-23T12:00:40.048Z,22272
2017-07-23T12:01:40.342Z,16616
2017-07-23T12:02:40.111Z,9876
2017-07-23T12:03:39.824Z,11232
2017-07-23T12:04:39.851Z,30560
2017-07-23T12:05:40.505Z,43232
2017-07-23T12:06:40.841Z,12440
2017-07-23T12:07:40.271Z,21504
2017-07-23T12:08:40.288Z,35936
2017-07-23T12:09:40.628Z,66816
2017-07-23T12:10:40.349Z,67936
2017-07-23T12:11:40.638Z,27200
2017-07-23T12:12:40.411Z,9672
2017-07-23T12:13:40.757Z,38272
2017-07-23T12:14:40.468Z,23264
2017-07-23T12:15:40.502Z,26048
2017-07-23T12:16:41.100Z,12284
2017-07-23T12:17:40.880Z,9512
2017-07-23T12:18:40.592Z,8812
2017-07-23T12:19:40.637Z,11988
2017-07-23T12:20:40.966Z,7628
2017-07-23T12:21:41.261Z,40672
2017-07-23T12:22:40.411Z,7472
2017-07-23T12:23:40.751Z,8804
2017-07-23T12:24:40.785Z,12464
2017-07-23T12:25:40.810Z,20192
2017-07-23T12:26:40.795Z,50560
2017-07-23T12:27:40.883Z,66720
2017-07-23T12:28:40.912Z,73376
2017-07-23T12:29:41.257Z,57280
2017-07-23T12:30:40.663Z,84512
2017-07-23T12:31:41.272Z,82432
2017-07-23T12:32:41.037Z,74464
2017-07-23T12:33:40.756Z,16432
2017-07-23T12:34:41.411Z,16424
2017-07-23T12:35:41.446Z,15144
2017-07-23T12:36:41.418Z,10148
2017-07-23T12:37:41.508Z,7052
2017-07-23T12:38:41.544Z,4500
2017-07-23T12:39:41.263Z,4548
2017-07-23T12:40:41.292Z,4556
2017-07-23T12:41:41.270Z,4784
2017-07-23T12:42:41.372Z,4772
2017-07-23T12:43:41.397Z,6072
2017-07-23T12:44:41.741Z,28192
2017-07-23T12:45:41.770Z,10776
2017-07-23T12:46:42.049Z,33728
2017-07-23T12:47:41.211Z,81792
2017-07-23T12:48:41.552Z,61152
2017-07-23T12:49:41.578Z,57728
2017-07-23T12:50:41.610Z,59616
2017-07-23T12:51:41.588Z,8900
2017-07-23T12:52:41.685Z,4732
2017-07-23T12:53:41.712Z,4076
2017-07-23T12:54:41.748Z,4072
2017-07-23T12:55:41.460Z,4504
2017-07-23T12:56:42.416Z,6084
2017-07-23T12:57:42.149Z,8092
2017-07-23T12:58:41.244Z,9996
2017-07-23T12:59:41.901Z,9468
2017-07-23T13:00:41.927Z,13456
2017-07-23T13:01:42.268Z,76928
2017-07-23T13:02:42.000Z,92544
2017-07-23T13:03:42.021Z,16812
2017-07-23T13:04:42.062Z,9752
2017-07-23T13:05:42.406Z,82240
2017-07-23T13:06:42.730Z,4244
2017-07-23T13:07:42.468Z,4404
2017-07-23T13:08:42.502Z,3900
2017-07-23T13:09:42.226Z,3984
2017-07-23T13:10:42.255Z,4772
2017-07-23T13:11:42.583Z,7012
2017-07-23T13:12:42.649Z,6584
2017-07-23T13:13:42.039Z,5912
2017-07-23T13:14:42.686Z,6364
2017-07-23T13:15:42.406Z,3876
2017-07-23T13:16:42.696Z,3088
2017-07-23T13:17:42.777Z,3252
2017-07-23T13:18:42.505Z,4908
2017-07-23T13:19:42.850Z,10188
2017-07-23T13:20:42.576Z,12868
2017-07-23T13:21:42.847Z,6904
2017-07-23T13:22:42.625Z,9852
2017-07-23T13:23:42.970Z,11364
2017-07-23T13:24:42.702Z,86304
2017-07-23T13:25:42.717Z,88192
2017-07-23T13:26:43.316Z,27136
2017-07-23T13:27:42.482Z,35520
2017-07-23T13:28:42.509Z,86816
2017-07-23T13:29:43.155Z,62784
2017-07-23T13:30:42.906Z,57248
2017-07-23T13:31:42.596Z,8772
2017-07-23T13:32:42.632Z,10928
2017-07-23T13:33:42.978Z,16820
2017-07-23T13:34:43.003Z,23072
2017-07-23T13:35:43.352Z,16880
2017-07-23T13:36:43.057Z,22816
2017-07-23T13:37:43.412Z,31872
2017-07-23T13:38:43.441Z,7544
2017-07-23T13:39:42.856Z,9444
2017-07-23T13:40:43.504Z,12916
2017-07-23T13:41:43.219Z,11232
2017-07-23T13:42:43.257Z,17664